Time;durP1;ratioP1;P1;durP2;ratioP2;P2;SDS_P1;SDS_P2;PMS_P1;PMS_P2;Temp;Humidity;BMP_temperature;BMP_pressure;BME280_temperature;BME280_humidity;BME280_pressure;Samples;Min_cycle;Max_cycle;Signal;HPM_P1;HPM_P2
2023/01/17 00:01:49;;;;;;;0.67;0.67;;;;;0.20;93206.00;;;;5053009;28;20192;-68
2023/01/17 00:09:55;;;;;;;0.70;0.70;;;;;0.40;93187.00;;;;5053254;28;20204;-68
2023/01/17 00:12:24;;;;;;;0.60;0.60;;;;;0.30;93219.00;;;;5052776;28;20188;-68
2023/01/17 00:14:54;;;;;;;0.70;0.70;;;;;0.30;93201.00;;;;5052850;28;20243;-68
2023/01/17 00:17:21;;;;;;;0.60;0.60;;;;;0.40;93195.00;;;;5052764;28;20247;-69
2023/01/17 01:35:31;;;;;;;0.70;0.70;;;;;0.50;93226.00;;;;5055572;28;20212;-67
2023/01/17 01:37:58;;;;;;;0.70;0.70;;;;;0.30;93237.00;;;;5055610;28;20208;-68
2023/01/17 01:40:26;;;;;;;2.03;1.20;;;;;0.30;93233.00;;;;5055371;28;20246;-67
2023/01/17 01:42:55;;;;;;;0.60;0.60;;;;;0.30;93234.00;;;;5055768;28;20190;-67
2023/01/17 01:45:26;;;;;;;0.67;0.67;;;;;0.30;93244.00;;;;5055144;28;20672;-67
2023/01/17 01:47:59;;;;;;;0.67;0.67;;;;;0.30;93248.00;;;;5055224;28;20235;-67
2023/01/17 01:50:28;;;;;;;0.70;0.70;;;;;0.30;93247.00;;;;5055215;28;20197;-67
2023/01/17 01:52:59;;;;;;;0.80;0.80;;;;;0.30;93251.00;;;;5055392;28;20216;-67
2023/01/17 01:55:31;;;;;;;0.70;0.70;;;;;0.30;93245.00;;;;5055246;28;20695;-67
2023/01/17 01:58:03;;;;;;;0.80;0.80;;;;;0.50;93243.00;;;;5055598;28;20183;-67
2023/01/17 02:00:35;;;;;;;0.83;0.83;;;;;0.50;93246.00;;;;5055524;28;20189;-67
2023/01/17 02:03:07;;;;;;;0.90;0.90;;;;;0.50;93248.00;;;;5055114;28;20590;-67
2023/01/17 02:05:36;;;;;;;0.97;0.97;;;;;0.50;93238.00;;;;5055122;28;20713;-67
2023/01/17 02:08:06;;;;;;;0.70;0.70;;;;;0.60;93242.00;;;;5054835;28;20655;-66
2023/01/17 02:10:35;;;;;;;0.60;0.60;;;;;0.60;93244.00;;;;5054859;28;20225;-67
2023/01/17 02:13:03;;;;;;;0.60;0.60;;;;;0.60;93222.00;;;;5055154;28;20218;-67
2023/01/17 02:15:40;;;;;;;1.60;1.43;;;;;0.60;93235.00;;;;5054828;28;20222;-67
2023/01/17 02:18:15;;;;;;;0.70;0.70;;;;;0.70;93241.00;;;;5054665;28;20186;-68
2023/01/17 02:20:57;;;;;;;0.70;0.70;;;;;0.70;93237.00;;;;5054639;28;20243;-68
2023/01/17 02:23:57;;;;;;;0.60;0.60;;;;;0.70;93244.00;;;;5054835;28;20217;-68
2023/01/17 02:27:01;;;;;;;0.70;0.70;;;;;0.70;93230.00;;;;5054578;28;20276;-68
2023/01/17 02:30:09;;;;;;;0.80;0.80;;;;;0.80;93236.00;;;;5054691;28;20611;-68
2023/01/17 02:32:53;;;;;;;1.17;1.17;;;;;0.90;93237.00;;;;5054821;28;20197;-68
2023/01/17 02:35:31;;;;;;;0.70;0.70;;;;;0.70;93233.00;;;;5054536;28;20183;-68
2023/01/17 02:38:11;;;;;;;0.70;0.70;;;;;1.00;93240.00;;;;5054591;28;20174;-68
2023/01/17 02:40:43;;;;;;;0.70;0.70;;;;;1.00;93234.00;;;;5054247;28;20190;-68
2023/01/17 02:43:15;;;;;;;0.70;0.70;;;;;1.00;93231.00;;;;5054634;28;20231;-68
2023/01/17 02:45:44;;;;;;;1.13;1.10;;;;;1.00;93236.00;;;;5054288;28;20259;-68
2023/01/17 02:48:16;;;;;;;0.70;0.70;;;;;0.90;93236.00;;;;5054004;28;20654;-68
2023/01/17 02:51:05;;;;;;;0.60;0.60;;;;;1.00;93231.00;;;;5053972;28;20206;-68
2023/01/17 02:53:48;;;;;;;0.60;0.60;;;;;0.70;93227.00;;;;5051692;28;20237;-68
2023/01/17 02:56:27;;;;;;;0.70;0.70;;;;;0.80;93230.00;;;;5054475;28;20222;-68
2023/01/17 02:59:11;;;;;;;0.60;0.60;;;;;0.80;93230.00;;;;5054166;28;20189;-68
2023/01/17 03:01:48;;;;;;;0.70;0.70;;;;;0.60;93227.00;;;;5054344;28;20186;-68
2023/01/17 03:04:21;;;;;;;0.73;0.73;;;;;0.60;93228.00;;;;5053772;28;20226;-68
2023/01/17 03:06:53;;;;;;;0.67;0.67;;;;;0.60;93239.00;;;;5053989;28;20688;-68
2023/01/17 03:09:22;;;;;;;0.70;0.70;;;;;0.70;93230.00;;;;5053714;28;20240;-68
2023/01/17 03:11:49;;;;;;;0.80;0.80;;;;;0.60;93230.00;;;;5053632;28;20201;-68
2023/01/17 03:14:17;;;;;;;0.70;0.70;;;;;0.70;93245.00;;;;5053539;28;20265;-69
2023/01/17 03:16:45;;;;;;;0.60;0.60;;;;;0.70;93248.00;;;;5053548;28;20226;-69
2023/01/17 03:19:13;;;;;;;1.63;1.47;;;;;0.80;93253.00;;;;5053380;28;20244;-68
2023/01/17 03:21:42;;;;;;;1.70;1.13;;;;;0.70;93246.00;;;;5053164;28;20193;-68
2023/01/17 03:24:09;;;;;;;0.60;0.60;;;;;0.70;93251.00;;;;5053423;28;20730;-68
2023/01/17 03:26:37;;;;;;;0.70;0.70;;;;;0.80;93260.00;;;;5053602;28;20568;-68
2023/01/17 03:29:04;;;;;;;0.80;0.80;;;;;0.70;93262.00;;;;5053329;28;20195;-68
2023/01/17 03:31:31;;;;;;;0.80;0.80;;;;;0.60;93263.00;;;;5053863;28;20254;-68
2023/01/17 03:33:59;;;;;;;1.07;1.07;;;;;0.60;93250.00;;;;5053714;28;20283;-68
2023/01/17 03:36:26;;;;;;;0.80;0.80;;;;;0.60;93258.00;;;;5051905;28;20586;-68
2023/01/17 03:38:55;;;;;;;0.80;0.80;;;;;0.60;93250.00;;;;5053204;28;20229;-68
2023/01/17 03:41:22;;;;;;;1.00;1.00;;;;;0.60;93246.00;;;;5053721;28;20203;-68
2023/01/17 03:43:50;;;;;;;0.70;0.70;;;;;0.60;93246.00;;;;5053140;28;20251;-68
2023/01/17 03:46:23;;;;;;;0.60;0.60;;;;;0.60;93234.00;;;;5053032;28;20231;-68
2023/01/17 03:48:51;;;;;;;0.70;0.70;;;;;0.60;93241.00;;;;5053177;28;20194;-68
2023/01/17 03:51:18;;;;;;;1.00;1.00;;;;;0.60;93235.00;;;;5053175;28;20185;-68
2023/01/17 03:53:46;;;;;;;0.80;0.80;;;;;0.60;93238.00;;;;5053234;28;20273;-68
2023/01/17 03:56:15;;;;;;;0.77;0.70;;;;;0.60;93226.00;;;;5052983;28;20225;-68
2023/01/17 03:58:43;;;;;;;0.80;0.80;;;;;0.50;93230.00;;;;5053057;28;20197;-68
2023/01/17 04:01:10;;;;;;;0.97;0.97;;;;;0.50;93233.00;;;;5053033;28;20202;-68
2023/01/17 04:03:37;;;;;;;1.00;1.00;;;;;0.40;93239.00;;;;5053402;28;20191;-68
2023/01/17 04:06:05;;;;;;;0.97;0.97;;;;;0.40;93227.00;;;;5052889;28;20214;-68
2023/01/17 04:08:33;;;;;;;1.07;1.07;;;;;0.30;93240.00;;;;5052960;28;20598;-68
2023/01/17 04:11:00;;;;;;;1.80;1.70;;;;;0.20;93234.00;;;;5053534;28;20264;-68
2023/01/17 04:13:29;;;;;;;1.20;1.20;;;;;0.30;93226.00;;;;5053060;28;20223;-68
2023/01/17 04:15:59;;;;;;;1.27;1.27;;;;;0.20;93228.00;;;;5052888;28;20283;-68
2023/01/17 04:18:27;;;;;;;0.93;0.93;;;;;0.10;93232.00;;;;5052804;28;20201;-68
2023/01/17 04:20:54;;;;;;;0.70;0.70;;;;;0.10;93235.00;;;;5052792;28;20263;-68
2023/01/17 04:23:21;;;;;;;0.70;0.70;;;;;0.10;93241.00;;;;5052759;28;20193;-68
2023/01/17 04:25:49;;;;;;;0.90;0.90;;;;;0.10;93238.00;;;;5052940;28;20217;-68
2023/01/17 04:28:16;;;;;;;1.40;1.30;;;;;0.00;93242.00;;;;5052701;28;20247;-68
2023/01/17 04:30:45;;;;;;;0.70;0.70;;;;;0.00;93232.00;;;;5053292;28;20248;-68
2023/01/17 04:33:12;;;;;;;0.70;0.70;;;;;0.00;93242.00;;;;5055318;28;20636;-68
2023/01/17 04:35:39;;;;;;;0.80;0.80;;;;;0.00;93242.00;;;;5056500;28;20213;-68
2023/01/17 04:38:07;;;;;;;0.80;0.80;;;;;0.00;93230.00;;;;5056755;28;20194;-68
2023/01/17 04:40:34;;;;;;;2.70;1.27;;;;;-0.10;93246.00;;;;5056552;28;20206;-68
2023/01/17 04:43:01;;;;;;;1.00;1.00;;;;;-0.20;93242.00;;;;5056434;28;20315;-68
2023/01/17 04:45:29;;;;;;;0.93;0.93;;;;;-0.20;93251.00;;;;5056545;28;20220;-68
2023/01/17 04:48:03;;;;;;;6.83;1.60;;;;;-0.10;93241.00;;;;5056280;28;20197;-68
2023/01/17 04:50:31;;;;;;;1.43;1.30;;;;;-0.10;93253.00;;;;5056293;28;20205;-68
2023/01/17 04:52:58;;;;;;;1.20;1.20;;;;;-0.20;93255.00;;;;5056751;28;20197;-68
2023/01/17 04:55:26;;;;;;;0.80;0.80;;;;;-0.20;93248.00;;;;5056054;28;20302;-68
2023/01/17 04:57:53;;;;;;;0.80;0.80;;;;;-0.20;93257.00;;;;5056125;28;20196;-68
2023/01/17 05:00:21;;;;;;;1.77;0.97;;;;;-0.20;93265.00;;;;5056060;28;20197;-67
2023/01/17 05:02:49;;;;;;;1.17;1.17;;;;;-0.10;93275.00;;;;5054643;28;20211;-67
2023/01/17 05:05:18;;;;;;;1.27;1.17;;;;;-0.10;93273.00;;;;5055834;28;20647;-67
2023/01/17 05:07:52;;;;;;;1.00;1.00;;;;;-0.10;93277.00;;;;5055823;28;20260;-67
2023/01/17 05:10:19;;;;;;;1.83;1.73;;;;;-0.10;93270.00;;;;5056401;28;20184;-67
2023/01/17 05:12:54;;;;;;;1.77;1.13;;;;;-0.10;93263.00;;;;5055981;28;20247;-67
2023/01/17 05:15:22;;;;;;;1.63;1.53;;;;;0.00;93260.00;;;;5055703;28;20203;-67
2023/01/17 05:17:50;;;;;;;1.53;1.43;;;;;0.00;93254.00;;;;5055565;28;20195;-67
2023/01/17 05:20:19;;;;;;;1.03;1.03;;;;;0.00;93244.00;;;;5055569;28;20197;-67
2023/01/17 05:22:54;;;;;;;1.40;1.30;;;;;0.00;93244.00;;;;5055825;28;20200;-67
2023/01/17 05:25:22;;;;;;;1.73;1.63;;;;;0.00;93238.00;;;;5055738;28;20178;-67
2023/01/17 05:27:49;;;;;;;0.90;0.90;;;;;0.00;93239.00;;;;5055758;28;20192;-68
2023/01/17 05:30:17;;;;;;;2.07;1.20;;;;;0.00;93239.00;;;;5055469;28;20286;-67
2023/01/17 05:32:48;;;;;;;0.83;0.83;;;;;-0.10;93231.00;;;;5055396;28;20659;-68
2023/01/17 05:35:15;;;;;;;0.80;0.80;;;;;-0.10;93234.00;;;;5055270;28;20399;-68
2023/01/17 05:37:47;;;;;;;0.90;0.90;;;;;-0.20;93229.00;;;;5055343;28;20202;-68
2023/01/17 05:40:15;;;;;;;1.10;1.10;;;;;-0.30;93227.00;;;;5055615;28;20187;-67
2023/01/17 05:42:46;;;;;;;1.10;1.10;;;;;-0.30;93219.00;;;;5054826;28;20255;-68
2023/01/17 05:45:15;;;;;;;1.00;1.00;;;;;-0.40;93217.00;;;;5055195;28;20218;-68
2023/01/17 05:47:43;;;;;;;0.70;0.70;;;;;-0.40;93232.00;;;;5055179;28;20242;-68
2023/01/17 05:50:12;;;;;;;0.97;0.97;;;;;-0.40;93248.00;;;;5054902;28;20305;-67
2023/01/17 05:52:39;;;;;;;0.90;0.90;;;;;-0.40;93246.00;;;;5055291;28;20193;-67
2023/01/17 05:55:09;;;;;;;0.80;0.80;;;;;-0.40;93248.00;;;;5055426;28;20212;-68
2023/01/17 05:57:36;;;;;;;0.83;0.83;;;;;-0.40;93232.00;;;;5055004;28;20189;-68
2023/01/17 06:00:05;;;;;;;1.50;1.20;;;;;-0.40;93225.00;;;;5054886;28;20197;-68
2023/01/17 06:02:32;;;;;;;0.90;0.90;;;;;-0.40;93216.00;;;;5055146;28;20200;-68
2023/01/17 06:04:59;;;;;;;1.00;1.00;;;;;-0.40;93208.00;;;;5054850;28;20193;-68
2023/01/17 06:07:27;;;;;;;3.00;1.43;;;;;-0.40;93206.00;;;;5053444;28;20221;-68
2023/01/17 06:09:54;;;;;;;1.03;1.03;;;;;-0.50;93199.00;;;;5053598;28;20267;-68
2023/01/17 06:12:23;;;;;;;0.97;0.97;;;;;-0.50;93201.00;;;;5054716;28;20196;-68
2023/01/17 06:14:50;;;;;;;0.83;0.83;;;;;-0.50;93196.00;;;;5054619;28;20274;-68
2023/01/17 06:17:18;;;;;;;1.00;1.00;;;;;-0.50;93200.00;;;;5054818;28;20614;-68
2023/01/17 06:19:45;;;;;;;1.60;1.50;;;;;-0.60;93200.00;;;;5054368;28;20203;-68
2023/01/17 06:22:13;;;;;;;0.87;0.87;;;;;-0.50;93207.00;;;;5054459;28;20186;-67
2023/01/17 06:24:40;;;;;;;4.43;1.17;;;;;-0.50;93205.00;;;;5054509;28;20194;-67
2023/01/17 06:27:09;;;;;;;3.70;1.27;;;;;-0.50;93195.00;;;;5054328;28;20212;-67
2023/01/17 06:29:38;;;;;;;1.83;1.13;;;;;-0.50;93197.00;;;;5054286;28;20235;-67
2023/01/17 06:32:05;;;;;;;1.33;1.23;;;;;-0.60;93207.00;;;;5054528;28;20746;-69
2023/01/17 06:34:33;;;;;;;3.03;0.90;;;;;-0.50;93192.00;;;;5054941;28;20705;-67
2023/01/17 06:37:00;;;;;;;1.17;1.17;;;;;-0.70;93184.00;;;;5054489;28;20216;-67
2023/01/17 06:39:27;;;;;;;0.73;0.73;;;;;-0.70;93193.00;;;;5054695;28;20249;-69
2023/01/17 06:41:55;;;;;;;0.90;0.90;;;;;-0.80;93203.00;;;;5054838;28;20201;-67
2023/01/17 06:44:22;;;;;;;1.00;1.00;;;;;-0.70;93193.00;;;;5054484;28;20196;-67
2023/01/17 06:46:51;;;;;;;0.80;0.80;;;;;-0.70;93205.00;;;;5053373;28;20215;-68
2023/01/17 06:49:18;;;;;;;1.27;1.27;;;;;-0.70;93198.00;;;;5053821;28;20686;-67
2023/01/17 06:51:46;;;;;;;1.00;1.00;;;;;-0.60;93187.00;;;;5054211;28;20213;-67
2023/01/17 06:54:14;;;;;;;4.93;1.10;;;;;-0.60;93185.00;;;;5053496;28;20220;-68
2023/01/17 06:56:41;;;;;;;1.27;1.27;;;;;-0.80;93186.00;;;;5053555;28;20220;-68
2023/01/17 06:59:09;;;;;;;1.10;1.10;;;;;-0.80;93183.00;;;;5054009;28;20560;-68
2023/01/17 07:01:36;;;;;;;1.00;1.00;;;;;-0.90;93188.00;;;;5053744;28;20259;-67
2023/01/17 07:04:05;;;;;;;1.97;1.77;;;;;-0.90;93185.00;;;;5053910;28;20222;-67
2023/01/17 07:06:35;;;;;;;1.67;1.40;;;;;-0.90;93184.00;;;;5053811;28;20243;-68
2023/01/17 07:09:03;;;;;;;1.03;1.03;;;;;-1.00;93172.00;;;;5053677;28;20192;-67
2023/01/17 07:11:31;;;;;;;1.30;1.27;;;;;-1.00;93177.00;;;;5053851;28;20540;-68
2023/01/17 07:13:59;;;;;;;1.30;1.30;;;;;-1.00;93162.00;;;;5053699;28;20190;-68
2023/01/17 07:16:26;;;;;;;1.33;1.33;;;;;-1.00;93165.00;;;;5053428;28;20718;-67
2023/01/17 07:18:55;;;;;;;1.60;1.50;;;;;-1.00;93160.00;;;;5053450;28;20197;-67
2023/01/17 07:21:24;;;;;;;2.20;2.10;;;;;-0.90;93160.00;;;;5053854;28;20242;-68
2023/01/17 07:23:52;;;;;;;0.90;0.90;;;;;-1.00;93152.00;;;;5053310;28;20221;-67
2023/01/17 07:26:19;;;;;;;1.60;1.50;;;;;-1.00;93144.00;;;;5053228;28;20216;-67
2023/01/17 07:28:46;;;;;;;1.20;1.10;;;;;-1.00;93147.00;;;;5051994;28;20200;-67
2023/01/17 07:31:14;;;;;;;1.40;1.30;;;;;-1.00;93139.00;;;;5053764;28;20188;-67
2023/01/17 07:33:41;;;;;;;1.77;1.67;;;;;-0.90;93136.00;;;;5053466;28;20215;-67
2023/01/17 07:36:09;;;;;;;2.07;1.97;;;;;-1.10;93143.00;;;;5053053;28;20224;-68
2023/01/17 07:38:39;;;;;;;1.50;1.40;;;;;-1.40;93137.00;;;;5053461;28;20581;-67
2023/01/17 07:41:06;;;;;;;0.83;0.83;;;;;-1.30;93152.00;;;;5051931;28;20304;-68
2023/01/17 07:43:35;;;;;;;1.30;1.20;;;;;-1.30;93164.00;;;;5053071;28;20215;-68
2023/01/17 07:46:05;;;;;;;6.43;1.70;;;;;-1.20;93171.00;;;;5053061;28;20231;-68
2023/01/17 07:48:32;;;;;;;1.67;1.60;;;;;-1.10;93163.00;;;;5053072;28;20723;-68
2023/01/17 07:51:00;;;;;;;3.20;2.73;;;;;-1.00;93172.00;;;;5052932;28;20583;-68
2023/01/17 07:53:29;;;;;;;2.63;1.20;;;;;-1.00;93179.00;;;;5052922;28;20200;-68
2023/01/17 07:56:01;;;;;;;1.90;1.73;;;;;-1.00;93166.00;;;;5052710;28;20234;-68
2023/01/17 07:58:28;;;;;;;1.00;1.00;;;;;-0.90;93172.00;;;;5044496;28;20220;-73
2023/01/17 08:01:01;;;;;;;1.10;1.10;;;;;-0.80;93163.00;;;;5048440;28;20262;-70
2023/01/17 08:03:31;;;;;;;1.10;1.10;;;;;-0.70;93161.00;;;;5050821;28;20238;-72
2023/01/17 08:05:58;;;;;;;2.17;1.13;;;;;-0.80;93152.00;;;;5049702;28;20208;-71
2023/01/17 08:08:26;;;;;;;1.20;1.20;;;;;-0.70;93153.00;;;;5054558;28;20679;-74
2023/01/17 08:10:53;;;;;;;1.20;1.20;;;;;-0.40;93153.00;;;;5065162;22;20321;-64
2023/01/17 08:13:22;;;;;;;0.70;0.70;;;;;-0.20;93155.00;;;;5054444;28;20254;-65
2023/01/17 08:15:50;;;;;;;1.00;1.00;;;;;-0.10;93161.00;;;;5045140;28;20219;-60
2023/01/17 08:18:18;;;;;;;1.03;1.03;;;;;-0.10;93160.00;;;;5053965;28;20205;-62
2023/01/17 08:20:46;;;;;;;1.57;1.47;;;;;0.00;93157.00;;;;5034732;28;20224;-62
2023/01/17 08:23:13;;;;;;;1.63;1.53;;;;;-0.10;93151.00;;;;5032827;28;20652;-62
2023/01/17 08:25:41;;;;;;;0.70;0.70;;;;;0.00;93143.00;;;;5034540;28;20692;-61
2023/01/17 08:28:08;;;;;;;0.90;0.90;;;;;0.10;93141.00;;;;5033989;28;20205;-61
2023/01/17 08:30:37;;;;;;;1.43;1.33;;;;;0.20;93142.00;;;;5025893;28;20218;-61
2023/01/17 08:33:05;;;;;;;0.70;0.70;;;;;0.30;93144.00;;;;5029150;28;20206;-62
2023/01/17 08:35:32;;;;;;;1.03;1.03;;;;;0.40;93143.00;;;;5032550;28;20251;-61
2023/01/17 08:38:03;;;;;;;1.03;1.03;;;;;0.40;93141.00;;;;5033683;28;20196;-61
2023/01/17 08:40:31;;;;;;;1.67;1.13;;;;;0.50;93151.00;;;;5033953;28;20224;-61
2023/01/17 08:43:00;;;;;;;0.90;0.90;;;;;0.50;93140.00;;;;5034058;28;20206;-61
2023/01/17 08:45:28;;;;;;;1.60;1.50;;;;;0.60;93141.00;;;;5033113;28;20565;-61
2023/01/17 08:47:58;;;;;;;0.90;0.90;;;;;0.70;93137.00;;;;5033562;28;20202;-62
2023/01/17 08:50:26;;;;;;;1.67;1.57;;;;;0.50;93136.00;;;;5034143;28;20223;-62
2023/01/17 08:52:58;;;;;;;1.30;1.20;;;;;0.70;93133.00;;;;5033469;28;20253;-61
2023/01/17 08:55:26;;;;;;;1.37;1.37;;;;;0.80;93129.00;;;;5033377;28;20201;-62
2023/01/17 08:57:53;;;;;;;1.10;1.10;;;;;0.80;93130.00;;;;5031363;28;20217;-61
2023/01/17 09:00:21;;;;;;;1.10;1.10;;;;;0.90;93120.00;;;;5032261;28;20229;-61
2023/01/17 09:02:51;;;;;;;1.90;1.03;;;;;1.10;93109.00;;;;5029554;28;20688;-62
2023/01/17 09:05:21;;;;;;;1.60;1.50;;;;;1.30;93121.00;;;;5033594;28;20199;-61
2023/01/17 09:07:48;;;;;;;1.90;1.37;;;;;1.30;93108.00;;;;5033584;28;20249;-61
2023/01/17 09:10:16;;;;;;;0.83;0.83;;;;;1.30;93109.00;;;;5032055;28;20792;-61
2023/01/17 09:12:43;;;;;;;0.70;0.70;;;;;1.40;93111.00;;;;5031987;28;20206;-60
2023/01/17 09:15:21;;;;;;;0.90;0.90;;;;;1.60;93106.00;;;;5033027;28;20568;-61
2023/01/17 09:17:49;;;;;;;0.90;0.90;;;;;1.30;93106.00;;;;5031576;28;20196;-61
2023/01/17 09:20:16;;;;;;;1.00;1.00;;;;;1.10;93110.00;;;;5032001;28;20223;-61
2023/01/17 09:22:45;;;;;;;0.80;0.80;;;;;1.10;93105.00;;;;5032191;28;20199;-61
2023/01/17 09:25:12;;;;;;;0.73;0.73;;;;;1.40;93092.00;;;;5029728;28;20203;-61
2023/01/17 09:27:40;;;;;;;1.00;1.00;;;;;1.60;93093.00;;;;5032301;28;20210;-61
2023/01/17 09:30:09;;;;;;;1.00;1.00;;;;;1.50;93083.00;;;;5031369;28;20223;-61
2023/01/17 09:32:36;;;;;;;0.90;0.90;;;;;1.10;93087.00;;;;5031580;28;20204;-61
2023/01/17 09:35:06;;;;;;;1.40;1.40;;;;;1.30;93093.00;;;;5031912;28;20318;-61
2023/01/17 09:37:33;;;;;;;2.07;1.53;;;;;1.40;93090.00;;;;5032628;28;20214;-61
2023/01/17 09:40:02;;;;;;;1.70;1.27;;;;;1.60;93091.00;;;;5032927;28;20224;-61
2023/01/17 09:42:35;;;;;;;1.37;1.37;;;;;1.60;93104.00;;;;5032838;28;20633;-61
2023/01/17 09:45:04;;;;;;;1.03;1.03;;;;;1.90;93100.00;;;;5031740;28;20961;-61
2023/01/17 09:47:41;;;;;;;1.37;1.27;;;;;1.80;93099.00;;;;5032384;28;20199;-62
2023/01/17 09:50:22;;;;;;;1.13;1.13;;;;;2.00;93099.00;;;;5033268;28;20235;-61
2023/01/17 09:52:50;;;;;;;2.30;1.13;;;;;2.20;93093.00;;;;5033226;28;20221;-62
2023/01/17 09:55:20;;;;;;;1.20;1.13;;;;;2.50;93081.00;;;;5033289;28;20759;-61
2023/01/17 09:57:59;;;;;;;1.47;1.37;;;;;2.70;93095.00;;;;5032660;28;20199;-62
2023/01/17 10:00:46;;;;;;;1.43;1.33;;;;;3.00;93077.00;;;;5032532;28;20298;-62
2023/01/17 10:03:50;;;;;;;1.50;1.47;;;;;3.20;93086.00;;;;5032174;28;20203;-61
2023/01/17 10:06:36;;;;;;;7.73;1.53;;;;;3.40;93078.00;;;;5024835;28;20701;-61
2023/01/17 10:09:16;;;;;;;1.30;1.20;;;;;3.10;93071.00;;;;5029304;28;20266;-61
2023/01/17 10:11:55;;;;;;;0.97;0.97;;;;;3.30;93074.00;;;;5030777;28;20204;-61
2023/01/17 10:14:42;;;;;;;4.87;2.37;;;;;3.20;93080.00;;;;5031268;28;20824;-63
2023/01/17 10:17:23;;;;;;;2.23;1.37;;;;;3.60;93076.00;;;;5031536;28;20208;-61
2023/01/17 10:20:10;;;;;;;1.53;1.43;;;;;3.30;93082.00;;;;5032108;28;20220;-62
2023/01/17 10:22:53;;;;;;;1.10;1.10;;;;;3.80;93076.00;;;;5030808;28;20203;-61
2023/01/17 10:25:35;;;;;;;1.60;1.50;;;;;4.10;93069.00;;;;5032383;28;20191;-61
2023/01/17 10:28:11;;;;;;;1.73;1.63;;;;;4.30;93072.00;;;;5031166;28;20193;-61
2023/01/17 10:30:44;;;;;;;1.70;1.60;;;;;4.20;93073.00;;;;5030536;28;20230;-61
2023/01/17 10:33:15;;;;;;;0.97;0.97;;;;;3.90;93077.00;;;;5030299;28;20758;-61
2023/01/17 10:35:51;;;;;;;1.27;1.27;;;;;3.70;93067.00;;;;5027688;28;20221;-61
2023/01/17 10:38:21;;;;;;;1.93;1.83;;;;;3.70;93072.00;;;;5032526;28;20192;-63
2023/01/17 10:40:53;;;;;;;0.97;0.97;;;;;3.20;93069.00;;;;5029229;28;20221;-61
2023/01/17 10:43:27;;;;;;;2.93;2.30;;;;;3.20;93071.00;;;;5031791;28;20220;-62
2023/01/17 10:45:56;;;;;;;1.33;1.33;;;;;3.20;93072.00;;;;5031364;28;20193;-61
2023/01/17 10:48:38;;;;;;;2.37;1.30;;;;;3.20;93069.00;;;;5032186;28;20616;-62
2023/01/17 10:51:24;;;;;;;1.30;1.20;;;;;3.40;93059.00;;;;5031177;28;20220;-61
2023/01/17 10:54:08;;;;;;;0.90;0.90;;;;;3.50;93065.00;;;;5031585;28;20283;-61
2023/01/17 10:56:39;;;;;;;1.20;1.20;;;;;3.50;93062.00;;;;5031387;28;20674;-61
2023/01/17 10:59:17;;;;;;;1.20;1.20;;;;;3.40;93062.00;;;;5031614;28;20239;-62
2023/01/17 11:01:45;;;;;;;0.80;0.80;;;;;3.60;93061.00;;;;5030117;28;20197;-61
2023/01/17 11:04:20;;;;;;;1.37;1.27;;;;;3.50;93050.00;;;;5030668;28;20683;-61
2023/01/17 11:06:48;;;;;;;1.20;1.20;;;;;3.90;93060.00;;;;5030565;28;20559;-60
2023/01/17 11:09:15;;;;;;;0.70;0.70;;;;;4.20;93054.00;;;;5031177;28;20291;-62
2023/01/17 11:11:50;;;;;;;0.80;0.80;;;;;4.30;93039.00;;;;5030286;28;20284;-61
2023/01/17 11:14:23;;;;;;;0.80;0.80;;;;;4.50;93025.00;;;;5031250;28;20216;-61
2023/01/17 11:17:02;;;;;;;1.00;1.00;;;;;5.20;93001.00;;;;5031092;28;20295;-61
2023/01/17 11:19:34;;;;;;;0.97;0.97;;;;;5.90;92988.00;;;;5031653;28;20603;-61
2023/01/17 11:22:04;;;;;;;1.30;1.20;;;;;6.30;92998.00;;;;5030799;28;20189;-62
2023/01/17 11:24:36;;;;;;;0.70;0.70;;;;;6.20;92992.00;;;;5031429;28;20189;-61
2023/01/17 11:27:06;;;;;;;0.67;0.67;;;;;6.10;92996.00;;;;5030998;28;20201;-61
2023/01/17 11:29:38;;;;;;;0.80;0.80;;;;;5.80;93012.00;;;;5029470;28;20588;-61
2023/01/17 11:32:30;;;;;;;0.80;0.80;;;;;5.10;93027.00;;;;5029836;28;20200;-61
2023/01/17 11:35:19;;;;;;;0.90;0.90;;;;;5.60;92977.00;;;;5030190;28;20185;-62
2023/01/17 11:37:51;;;;;;;1.17;1.17;;;;;6.80;92987.00;;;;5030351;28;20275;-61
2023/01/17 11:40:25;;;;;;;1.00;1.00;;;;;8.60;92944.00;;;;5030842;28;20212;-63
2023/01/17 11:43:05;;;;;;;1.10;1.10;;;;;10.20;92928.00;;;;5030306;28;20275;-62
2023/01/17 11:45:34;;;;;;;0.87;0.87;;;;;11.40;92931.00;;;;5031430;28;20200;-62
2023/01/17 11:48:11;;;;;;;0.90;0.90;;;;;12.30;92929.00;;;;5030350;28;20192;-63
2023/01/17 11:50:40;;;;;;;1.17;1.17;;;;;12.10;92954.00;;;;5031033;28;20216;-67
2023/01/17 11:53:18;;;;;;;0.83;0.83;;;;;11.20;92918.00;;;;5030426;28;20212;-62
2023/01/17 11:56:01;;;;;;;1.13;1.13;;;;;12.60;92928.00;;;;5030948;28;20644;-62
2023/01/17 11:58:29;;;;;;;1.10;1.10;;;;;13.20;92930.00;;;;5030262;28;20189;-65
2023/01/17 12:01:21;;;;;;;0.70;0.70;;;;;13.20;92919.00;;;;5030906;28;20220;-65
2023/01/17 12:04:28;;;;;;;0.70;0.70;;;;;13.00;92908.00;;;;5026143;28;20200;-66
2023/01/17 12:07:10;;;;;;;0.70;0.70;;;;;12.70;92901.00;;;;5030777;28;20308;-66
2023/01/17 12:09:44;;;;;;;0.50;0.50;;;;;10.70;92909.00;;;;5025291;28;20243;-65
2023/01/17 12:15:23;;;;;;;0.50;0.50;;;;;11.00;92914.00;;;;5031011;28;20255;-61
2023/01/17 12:18:12;;;;;;;0.80;0.80;;;;;10.20;92911.00;;;;5029551;28;20213;-61
2023/01/17 12:20:49;;;;;;;0.60;0.60;;;;;9.00;92915.00;;;;5021144;28;20278;-61
2023/01/17 12:23:33;;;;;;;0.80;0.80;;;;;8.90;92920.00;;;;5030319;28;20199;-61
2023/01/17 12:26:18;;;;;;;0.80;0.80;;;;;8.50;92914.00;;;;5030201;28;20197;-63
2023/01/17 12:29:09;;;;;;;0.90;0.90;;;;;8.00;92903.00;;;;5030775;28;20193;-62
2023/01/17 12:31:42;;;;;;;1.03;0.80;;;;;7.50;92909.00;;;;5021921;28;20181;-62
2023/01/17 12:34:22;;;;;;;1.17;1.07;;;;;6.90;92897.00;;;;5030621;28;20759;-61
2023/01/17 12:36:56;;;;;;;9.30;0.87;;;;;7.60;92896.00;;;;5028789;28;20212;-61
2023/01/17 12:39:30;;;;;;;0.70;0.70;;;;;7.00;92899.00;;;;5030800;28;20219;-60
2023/01/17 12:42:02;;;;;;;0.60;0.60;;;;;6.30;92884.00;;;;5028605;28;20212;-62
2023/01/17 12:44:47;;;;;;;1.00;1.00;;;;;5.80;92877.00;;;;5030925;28;20193;-61
2023/01/17 12:47:15;;;;;;;0.70;0.70;;;;;5.40;92880.00;;;;5030338;28;20254;-61
2023/01/17 12:49:50;;;;;;;1.10;1.10;;;;;5.60;92868.00;;;;5030091;28;20249;-60
2023/01/17 12:52:23;;;;;;;0.80;0.80;;;;;5.30;92867.00;;;;5030206;28;20652;-62
2023/01/17 12:54:55;;;;;;;0.90;0.90;;;;;5.20;92875.00;;;;5032254;28;20191;-62
2023/01/17 12:57:26;;;;;;;2.73;1.37;;;;;5.10;92867.00;;;;5031799;28;20209;-62
2023/01/17 13:00:02;;;;;;;0.87;0.87;;;;;4.90;92865.00;;;;5033677;28;20225;-61
2023/01/17 13:02:36;;;;;;;0.70;0.70;;;;;4.70;92861.00;;;;5033723;28;20276;-61
2023/01/17 13:05:11;;;;;;;0.83;0.83;;;;;4.50;92866.00;;;;5033277;28;20195;-61
2023/01/17 13:07:45;;;;;;;1.97;1.87;;;;;4.60;92867.00;;;;5033654;28;20188;-62
2023/01/17 13:10:34;;;;;;;0.93;0.93;;;;;4.40;92865.00;;;;5032092;28;20226;-63
2023/01/17 13:13:18;;;;;;;1.27;1.27;;;;;4.40;92866.00;;;;5027260;28;20660;-61
2023/01/17 13:15:48;;;;;;;1.00;1.00;;;;;4.00;92869.00;;;;5032742;28;20204;-62
2023/01/17 13:18:21;;;;;;;0.93;0.93;;;;;3.90;92860.00;;;;5032995;28;20692;-61
2023/01/17 13:21:11;;;;;;;0.70;0.70;;;;;4.10;92867.00;;;;5032806;28;20322;-62
2023/01/17 13:24:01;;;;;;;0.83;0.83;;;;;3.90;92867.00;;;;5033496;28;20201;-60
2023/01/17 13:26:43;;;;;;;3.90;0.97;;;;;3.60;92870.00;;;;5033201;28;20189;-60
2023/01/17 13:29:20;;;;;;;0.70;0.70;;;;;3.50;92873.00;;;;5032675;28;20188;-60
2023/01/17 13:31:55;;;;;;;0.93;0.90;;;;;3.60;92873.00;;;;5032514;28;20193;-60
2023/01/17 13:34:49;;;;;;;0.80;0.80;;;;;3.50;92866.00;;;;5032219;28;20200;-61
2023/01/17 13:37:36;;;;;;;1.67;1.57;;;;;3.50;92866.00;;;;5028861;28;20232;-60
2023/01/17 13:40:29;;;;;;;1.30;1.20;;;;;3.40;92873.00;;;;5032907;28;20311;-61
2023/01/17 13:42:58;;;;;;;3.53;1.57;;;;;3.50;92864.00;;;;5033365;28;20243;-61
2023/01/17 13:45:29;;;;;;;3.30;1.73;;;;;3.70;92862.00;;;;5033103;28;20565;-60
2023/01/17 13:48:30;;;;;;;1.03;1.03;;;;;3.90;92867.00;;;;5032835;28;20185;-61
2023/01/17 13:50:59;;;;;;;0.90;0.90;;;;;3.90;92862.00;;;;5023186;28;20218;-62
2023/01/17 13:53:58;;;;;;;1.33;1.30;;;;;4.00;92868.00;;;;5032861;28;20193;-61
2023/01/17 13:56:36;;;;;;;0.93;0.93;;;;;4.00;92867.00;;;;5032396;28;20579;-60
2023/01/17 13:59:29;;;;;;;1.00;1.00;;;;;4.00;92866.00;;;;5033026;28;20197;-61
2023/01/17 14:01:56;;;;;;;1.00;1.00;;;;;4.00;92880.00;;;;5032247;28;20254;-61
2023/01/17 14:04:25;;;;;;;1.33;1.27;;;;;4.00;92871.00;;;;5032670;28;20207;-61
2023/01/17 14:07:02;;;;;;;0.80;0.80;;;;;4.00;92873.00;;;;5032059;28;20197;-62
2023/01/17 14:12:05;;;;;;;1.70;1.60;;;;;3.80;92878.00;;;;5030699;28;20192;-69
2023/01/17 14:14:50;;;;;;;0.80;0.80;;;;;3.70;92869.00;;;;5031782;28;20193;-69
2023/01/17 14:17:58;;;;;;;1.13;1.07;;;;;3.50;92870.00;;;;5030701;28;20695;-69